createdAt,value
2019-06-26T00:00:00.829Z,1009.61
2019-06-26T00:01:01.151Z,1009.58
2019-06-26T00:02:00.603Z,1009.63
2019-06-26T00:03:00.607Z,1009.60
2019-06-26T00:04:00.565Z,1009.70
2019-06-26T00:05:00.560Z,1009.71
2019-06-26T00:06:00.574Z,1009.65
2019-06-26T00:07:00.536Z,1009.75
2019-06-26T00:08:00.514Z,1009.72
2019-06-26T00:09:00.511Z,1009.74
2019-06-26T00:10:00.498Z,1009.74
2019-06-26T00:11:00.518Z,1009.78
2019-06-26T00:12:00.492Z,1009.74
2019-06-26T00:13:00.474Z,1009.74
2019-06-26T00:14:00.472Z,1009.72
2019-06-26T00:15:00.443Z,1009.79
2019-06-26T00:16:00.476Z,1009.80
2019-06-26T00:17:00.422Z,1009.73
2019-06-26T00:18:00.412Z,1009.73
2019-06-26T00:19:00.443Z,1009.76
2019-06-26T00:20:00.426Z,1009.79
2019-06-26T00:21:00.420Z,1009.74
2019-06-26T00:22:00.370Z,1009.78
2019-06-26T00:23:00.362Z,1009.79
2019-06-26T00:24:00.416Z,1009.77
2019-06-26T00:25:00.342Z,1009.78
2019-06-26T00:26:00.359Z,1009.81
2019-06-26T00:27:00.306Z,1009.80
2019-06-26T00:28:00.312Z,1009.79
2019-06-26T00:29:00.289Z,1009.86
2019-06-26T00:30:00.284Z,1009.81
2019-06-26T00:31:00.301Z,1009.78
2019-06-26T00:32:00.270Z,1009.84
2019-06-26T00:33:00.242Z,1009.83
2019-06-26T00:34:00.236Z,1009.86
2019-06-26T00:35:00.234Z,1009.86
2019-06-26T00:36:00.234Z,1009.85
2019-06-26T00:37:00.216Z,1009.86
2019-06-26T00:38:00.186Z,1009.83
2019-06-26T00:39:00.176Z,1009.94
2019-06-26T00:40:00.186Z,1009.94
2019-06-26T00:41:00.174Z,1009.93
2019-06-26T00:42:00.150Z,1009.97
2019-06-26T00:43:00.147Z,1009.93
2019-06-26T00:44:00.246Z,1009.89
2019-06-26T00:45:00.164Z,1009.99
2019-06-26T00:46:00.137Z,1010.02
2019-06-26T00:47:00.108Z,1010.01
2019-06-26T00:48:00.129Z,1010.03
2019-06-26T00:49:00.093Z,1009.99
2019-06-26T00:50:00.057Z,1010.02
2019-06-26T00:51:00.073Z,1010.02
2019-06-26T00:52:00.032Z,1009.97
2019-06-26T00:53:00.018Z,1010.07
2019-06-26T00:54:00.020Z,1010.06
2019-06-26T00:55:00.039Z,1010.09
2019-06-26T00:55:59.993Z,1010.05
2019-06-26T00:57:00.017Z,1010.09
2019-06-26T00:57:59.969Z,1010.08
2019-06-26T00:59:00.014Z,1010.07
2019-06-26T00:59:59.947Z,1010.12
2019-06-26T01:00:59.937Z,1010.13
2019-06-26T01:01:59.959Z,1010.06
2019-06-26T01:02:59.975Z,1010.14
2019-06-26T01:03:59.920Z,1010.17
2019-06-26T01:04:59.914Z,1010.15
2019-06-26T01:05:59.884Z,1010.13
2019-06-26T01:06:59.902Z,1010.08
2019-06-26T01:07:59.864Z,1010.05
2019-06-26T01:08:59.838Z,1010.12
2019-06-26T01:09:59.891Z,1010.12
2019-06-26T01:10:59.822Z,1010.12
2019-06-26T01:11:59.826Z,1010.07
2019-06-26T01:12:59.835Z,1010.11
2019-06-26T01:13:59.787Z,1010.09
2019-06-26T01:14:59.781Z,1010.05
2019-06-26T01:15:59.790Z,1010.10
2019-06-26T01:16:59.782Z,1010.12
2019-06-26T01:17:59.744Z,1010.10
2019-06-26T01:18:59.750Z,1010.22
2019-06-26T01:19:59.739Z,1010.20
2019-06-26T01:20:59.711Z,1010.19
2019-06-26T01:21:59.727Z,1010.17
2019-06-26T01:22:59.689Z,1010.22
2019-06-26T01:23:59.722Z,1010.12
2019-06-26T01:24:59.672Z,1010.20
2019-06-26T01:25:59.666Z,1010.08
2019-06-26T01:26:59.669Z,1010.10
2019-06-26T01:27:59.630Z,1010.13
2019-06-26T01:28:59.625Z,1010.18
2019-06-26T01:29:59.608Z,1010.16
2019-06-26T01:30:59.602Z,1010.18
2019-06-26T01:31:59.618Z,1010.19
2019-06-26T01:32:59.573Z,1010.15
2019-06-26T01:33:59.565Z,1010.14
2019-06-26T01:34:59.557Z,1010.14
2019-06-26T01:35:59.555Z,1010.10
2019-06-26T01:36:59.548Z,1010.10
2019-06-26T01:37:59.523Z,1010.13
2019-06-26T01:38:59.518Z,1010.15
2019-06-26T01:39:59.503Z,1010.13
2019-06-26T01:40:59.489Z,1010.11
2019-06-26T01:41:59.500Z,1010.18
2019-06-26T01:42:59.491Z,1010.14
2019-06-26T01:44:13.734Z,1010.13
2019-06-26T01:45:00.448Z,1010.15
2019-06-26T01:45:59.439Z,1010.18
2019-06-26T01:46:59.453Z,1010.11
2019-06-26T01:47:59.423Z,1010.08
2019-06-26T01:48:59.474Z,1010.15
2019-06-26T01:49:59.391Z,1010.13
2019-06-26T01:50:59.383Z,1010.17
2019-06-26T01:51:59.401Z,1010.18
2019-06-26T01:52:59.366Z,1010.18
2019-06-26T01:53:59.360Z,1010.21
2019-06-26T01:54:59.344Z,1010.27
2019-06-26T01:55:59.350Z,1010.22
2019-06-26T01:56:59.375Z,1010.20
2019-06-26T01:57:59.307Z,1010.21
2019-06-26T01:58:59.299Z,1010.24
2019-06-26T01:59:59.320Z,1010.25
2019-06-26T02:00:59.284Z,1010.20
2019-06-26T02:01:59.283Z,1010.22
2019-06-26T02:02:59.270Z,1010.21
2019-06-26T02:03:59.243Z,1010.25
2019-06-26T02:04:59.276Z,1010.20
2019-06-26T02:05:59.223Z,1010.25
2019-06-26T02:06:59.251Z,1010.26
2019-06-26T02:07:59.215Z,1010.28
2019-06-26T02:08:59.192Z,1010.29
2019-06-26T02:09:59.193Z,1010.36
2019-06-26T02:10:59.188Z,1010.36
2019-06-26T02:12:00.518Z,1010.30
2019-06-26T02:12:59.152Z,1010.33
2019-06-26T02:13:59.144Z,1010.38
2019-06-26T02:14:59.134Z,1010.36
2019-06-26T02:15:59.157Z,1010.40
2019-06-26T02:16:59.147Z,1010.36
2019-06-26T02:17:59.097Z,1010.40
2019-06-26T02:18:59.086Z,1010.43
2019-06-26T02:19:59.093Z,1010.39
2019-06-26T02:20:59.096Z,1010.44
2019-06-26T02:21:59.974Z,1010.39
2019-06-26T02:22:59.048Z,1010.39
2019-06-26T02:23:59.033Z,1010.43
2019-06-26T02:24:59.021Z,1010.44
2019-06-26T02:25:59.028Z,1010.42
2019-06-26T02:26:59.113Z,1010.44
2019-06-26T02:27:58.992Z,1010.42
2019-06-26T02:28:58.982Z,1010.40
2019-06-26T02:29:58.973Z,1010.39
2019-06-26T02:30:58.969Z,1010.43
2019-06-26T02:31:58.970Z,1010.41
2019-06-26T02:32:58.936Z,1010.40
2019-06-26T02:33:58.926Z,1010.40
2019-06-26T02:34:58.946Z,1010.46
2019-06-26T02:35:58.908Z,1010.38
2019-06-26T02:36:58.935Z,1010.43
2019-06-26T02:37:58.924Z,1010.39
2019-06-26T02:38:58.899Z,1010.42
2019-06-26T02:39:58.878Z,1010.45
2019-06-26T02:40:58.862Z,1010.42
2019-06-26T02:41:58.919Z,1010.41
2019-06-26T02:42:58.829Z,1010.37
2019-06-26T02:43:58.828Z,1010.45
2019-06-26T02:44:58.812Z,1010.40
2019-06-26T02:45:58.813Z,1010.46
2019-06-26T02:47:17.685Z,1010.51
2019-06-26T02:47:59.781Z,1010.48
2019-06-26T02:48:58.772Z,1010.46
2019-06-26T02:49:58.770Z,1010.47
2019-06-26T02:50:58.753Z,1010.48
2019-06-26T02:51:58.760Z,1010.49
2019-06-26T02:52:58.743Z,1010.49
2019-06-26T02:53:58.727Z,1010.50
2019-06-26T02:54:58.758Z,1010.45
2019-06-26T02:55:58.687Z,1010.51
2019-06-26T02:56:59.474Z,1010.54
2019-06-26T02:57:58.708Z,1010.55
2019-06-26T02:58:58.685Z,1010.57
2019-06-26T02:59:58.682Z,1010.55
2019-06-26T03:00:58.642Z,1010.53
2019-06-26T03:01:58.649Z,1010.58
2019-06-26T03:02:58.615Z,1010.58
2019-06-26T03:03:58.611Z,1010.60
2019-06-26T03:04:58.610Z,1010.56
2019-06-26T03:05:58.589Z,1010.57
2019-06-26T03:06:58.603Z,1010.64
2019-06-26T03:07:58.564Z,1010.65
2019-06-26T03:08:58.554Z,1010.62
2019-06-26T03:09:58.548Z,1010.66
2019-06-26T03:10:58.552Z,1010.69
2019-06-26T03:11:58.563Z,1010.66
2019-06-26T03:12:58.519Z,1010.70
2019-06-26T03:13:58.509Z,1010.70
2019-06-26T03:15:08.169Z,1010.69
2019-06-26T03:15:59.534Z,1010.69
2019-06-26T03:16:58.495Z,1010.73
2019-06-26T03:17:58.454Z,1010.77
2019-06-26T03:18:58.467Z,1010.80
2019-06-26T03:19:58.434Z,1010.80
2019-06-26T03:20:58.428Z,1010.77
2019-06-26T03:21:58.434Z,1010.77
2019-06-26T03:22:58.461Z,1010.82
2019-06-26T03:23:58.387Z,1010.79
2019-06-26T03:24:58.390Z,1010.82
2019-06-26T03:25:58.377Z,1010.87
2019-06-26T03:26:58.387Z,1010.85
2019-06-26T03:27:58.351Z,1010.84
2019-06-26T03:28:58.334Z,1010.88
2019-06-26T03:29:58.339Z,1010.86
2019-06-26T03:30:58.317Z,1010.89
2019-06-26T03:31:58.346Z,1010.93
2019-06-26T03:32:58.366Z,1010.98
2019-06-26T03:33:58.310Z,1010.91
2019-06-26T03:34:58.265Z,1010.89
2019-06-26T03:35:58.266Z,1010.94
2019-06-26T03:36:58.273Z,1010.94
2019-06-26T03:37:58.272Z,1010.93
2019-06-26T03:38:58.253Z,1010.95
2019-06-26T03:39:58.207Z,1010.98
2019-06-26T03:40:58.200Z,1010.96
2019-06-26T03:41:58.210Z,1010.98
2019-06-26T03:42:58.177Z,1011.01
2019-06-26T03:43:58.179Z,1011.06
2019-06-26T03:44:58.214Z,1011.03
2019-06-26T03:45:58.173Z,1011.03
2019-06-26T03:46:58.163Z,1011.02
2019-06-26T03:47:58.175Z,1011.10
2019-06-26T03:48:58.113Z,1011.09
2019-06-26T03:49:58.111Z,1011.05
2019-06-26T03:50:58.101Z,1011.13
2019-06-26T03:51:58.144Z,1011.01
2019-06-26T03:52:58.086Z,1011.04
2019-06-26T03:53:58.074Z,1011.11
2019-06-26T03:54:58.082Z,1011.10
2019-06-26T03:55:58.044Z,1011.09
2019-06-26T03:56:58.132Z,1011.10
2019-06-26T03:57:58.077Z,1011.16
2019-06-26T03:58:58.010Z,1011.16
2019-06-26T03:59:58.008Z,1011.19
2019-06-26T04:00:58.015Z,1011.23
2019-06-26T04:01:58.053Z,1011.19
2019-06-26T04:02:57.993Z,1011.26
2019-06-26T04:03:58.009Z,1011.16
2019-06-26T04:04:58.056Z,1011.24
2019-06-26T04:05:57.975Z,1011.20
2019-06-26T04:06:57.932Z,1011.27
2019-06-26T04:07:58.018Z,1011.34
2019-06-26T04:08:57.902Z,1011.31
2019-06-26T04:09:57.897Z,1011.35
2019-06-26T04:10:57.921Z,1011.38
2019-06-26T04:11:57.967Z,1011.37
2019-06-26T04:12:57.892Z,1011.35
2019-06-26T04:13:57.847Z,1011.42
2019-06-26T04:14:57.869Z,1011.43
2019-06-26T04:15:57.830Z,1011.47
2019-06-26T04:16:57.826Z,1011.46
2019-06-26T04:17:57.822Z,1011.45
2019-06-26T04:18:57.832Z,1011.51
2019-06-26T04:19:57.821Z,1011.54
2019-06-26T04:20:57.787Z,1011.56
2019-06-26T04:21:57.760Z,1011.47
2019-06-26T04:22:57.782Z,1011.48
2019-06-26T04:23:57.757Z,1011.51
2019-06-26T04:24:57.727Z,1011.54
2019-06-26T04:25:57.750Z,1011.52
2019-06-26T04:26:57.708Z,1011.54
2019-06-26T04:27:57.740Z,1011.56
2019-06-26T04:28:57.702Z,1011.52
2019-06-26T04:29:57.715Z,1011.54
2019-06-26T04:30:57.665Z,1011.54
2019-06-26T04:31:57.665Z,1011.50
2019-06-26T04:32:57.664Z,1011.44
2019-06-26T04:33:57.658Z,1011.50
2019-06-26T04:34:57.674Z,1011.49
2019-06-26T04:35:57.616Z,1011.53
2019-06-26T04:36:57.609Z,1011.53
2019-06-26T04:37:57.612Z,1011.53
2019-06-26T04:38:57.584Z,1011.51
2019-06-26T04:39:57.600Z,1011.60
2019-06-26T04:40:57.589Z,1011.57
2019-06-26T04:41:57.620Z,1011.62
2019-06-26T04:42:57.573Z,1011.61
2019-06-26T04:43:57.545Z,1011.62
2019-06-26T04:44:57.512Z,1011.60
2019-06-26T04:45:58.733Z,1011.65
2019-06-26T04:46:57.490Z,1011.58
2019-06-26T04:47:57.561Z,1011.64
2019-06-26T04:48:57.483Z,1011.67
2019-06-26T04:49:57.482Z,1011.69
2019-06-26T04:50:57.460Z,1011.68
2019-06-26T04:51:57.440Z,1011.76
2019-06-26T04:52:57.454Z,1011.70
2019-06-26T04:53:57.442Z,1011.73
2019-06-26T04:54:57.419Z,1011.77
2019-06-26T04:55:57.399Z,1011.72
2019-06-26T04:56:57.379Z,1011.71
2019-06-26T04:57:57.429Z,1011.75
2019-06-26T04:58:57.384Z,1011.68
2019-06-26T04:59:57.353Z,1011.76
2019-06-26T05:00:57.346Z,1011.78
2019-06-26T05:01:57.341Z,1011.76
2019-06-26T05:02:57.363Z,1011.80
2019-06-26T05:03:57.325Z,1011.83
2019-06-26T05:04:57.296Z,1011.77
2019-06-26T05:05:57.284Z,1011.76
2019-06-26T05:06:57.304Z,1011.85
2019-06-26T05:07:57.323Z,1011.85
2019-06-26T05:08:57.283Z,1011.85
2019-06-26T05:09:57.261Z,1011.85
2019-06-26T05:10:57.248Z,1011.88
2019-06-26T05:11:57.223Z,1011.87
2019-06-26T05:12:57.289Z,1011.82
2019-06-26T05:13:57.203Z,1011.97
2019-06-26T05:14:57.192Z,1011.95
2019-06-26T05:16:13.369Z,1011.95
2019-06-26T05:16:58.167Z,1011.91
2019-06-26T05:17:57.214Z,1011.88
2019-06-26T05:18:57.147Z,1011.99
2019-06-26T05:19:57.138Z,1011.93
2019-06-26T05:20:57.124Z,1011.89
2019-06-26T05:21:57.132Z,1012.04
2019-06-26T05:22:57.121Z,1011.99
2019-06-26T05:23:57.095Z,1011.93
2019-06-26T05:24:57.079Z,1011.93
2019-06-26T05:25:57.091Z,1011.96
2019-06-26T05:26:57.070Z,1011.96
2019-06-26T05:27:57.078Z,1011.98
2019-06-26T05:28:57.074Z,1012.02
2019-06-26T05:29:57.030Z,1012.03
2019-06-26T05:30:57.045Z,1011.99
2019-06-26T05:31:57.001Z,1012.01
2019-06-26T05:32:57.043Z,1011.98
2019-06-26T05:33:56.983Z,1011.96
2019-06-26T05:34:56.971Z,1011.99
2019-06-26T05:35:57.004Z,1011.96
2019-06-26T05:36:56.954Z,1011.94
2019-06-26T05:37:57.065Z,1011.96
2019-06-26T05:38:56.940Z,1012.01
2019-06-26T05:39:56.933Z,1011.99
2019-06-26T05:40:56.946Z,1012.05
2019-06-26T05:41:56.894Z,1012.00
2019-06-26T05:42:56.911Z,1012.02
2019-06-26T05:43:56.884Z,1012.03
2019-06-26T05:44:56.873Z,1012.02
2019-06-26T05:45:56.865Z,1012.03
2019-06-26T05:46:56.848Z,1012.02
2019-06-26T05:47:56.859Z,1012.05
2019-06-26T05:48:56.822Z,1012.06
2019-06-26T05:49:56.813Z,1012.11
2019-06-26T05:50:56.818Z,1012.15
2019-06-26T05:51:56.811Z,1012.08
2019-06-26T05:52:56.821Z,1012.10
2019-06-26T05:53:56.763Z,1012.09
2019-06-26T05:54:56.826Z,1012.19
2019-06-26T05:55:56.748Z,1012.17
2019-06-26T05:56:56.737Z,1012.23
2019-06-26T05:57:56.772Z,1012.13
2019-06-26T05:58:56.750Z,1012.15
2019-06-26T05:59:56.703Z,1012.15
2019-06-26T06:00:56.709Z,1012.15
2019-06-26T06:01:56.717Z,1012.10
2019-06-26T06:02:56.675Z,1012.16
2019-06-26T06:03:56.679Z,1012.22
2019-06-26T06:04:56.655Z,1012.27
2019-06-26T06:05:56.663Z,1012.32
2019-06-26T06:06:56.641Z,1012.30
2019-06-26T06:07:56.625Z,1012.32
2019-06-26T06:08:56.635Z,1012.25
2019-06-26T06:09:56.650Z,1012.25
2019-06-26T06:10:58.241Z,1012.38
2019-06-26T06:11:56.579Z,1012.36
2019-06-26T06:12:56.567Z,1012.35
2019-06-26T06:13:56.630Z,1012.32
2019-06-26T06:14:56.559Z,1012.28
2019-06-26T06:15:56.546Z,1012.35
2019-06-26T06:16:56.538Z,1012.33
2019-06-26T06:17:56.515Z,1012.28
2019-06-26T06:18:56.578Z,1012.30
2019-06-26T06:19:56.512Z,1012.28
2019-06-26T06:20:56.503Z,1012.30
2019-06-26T06:21:56.499Z,1012.25
2019-06-26T06:22:56.462Z,1012.29
2019-06-26T06:23:56.508Z,1012.28
2019-06-26T06:24:56.445Z,1012.28
2019-06-26T06:25:56.433Z,1012.33
2019-06-26T06:26:56.430Z,1012.31
2019-06-26T06:27:56.425Z,1012.37
2019-06-26T06:28:56.462Z,1012.32
2019-06-26T06:29:56.391Z,1012.37
2019-06-26T06:30:56.388Z,1012.38
2019-06-26T06:31:56.370Z,1012.34
2019-06-26T06:32:56.379Z,1012.38
2019-06-26T06:33:56.361Z,1012.43
2019-06-26T06:34:56.350Z,1012.40
2019-06-26T06:35:56.345Z,1012.44
2019-06-26T06:36:56.317Z,1012.41
2019-06-26T06:37:56.345Z,1012.41
2019-06-26T06:38:56.482Z,1012.43
2019-06-26T06:39:56.290Z,1012.45
2019-06-26T06:40:56.279Z,1012.49
2019-06-26T06:41:56.277Z,1012.51
2019-06-26T06:42:56.254Z,1012.63
2019-06-26T06:43:56.271Z,1012.61
2019-06-26T06:44:56.234Z,1012.60
2019-06-26T06:45:56.221Z,1012.62
2019-06-26T06:47:04.017Z,1012.60
2019-06-26T06:47:57.216Z,1012.69
2019-06-26T06:48:56.230Z,1012.52
2019-06-26T06:49:56.189Z,1012.51
2019-06-26T06:50:56.182Z,1012.57
2019-06-26T06:51:56.189Z,1012.61
2019-06-26T06:52:56.155Z,1012.65
2019-06-26T06:53:56.169Z,1012.56
2019-06-26T06:54:56.121Z,1012.59
2019-06-26T06:55:56.116Z,1012.57
2019-06-26T06:56:56.148Z,1012.64
2019-06-26T06:57:56.156Z,1012.63
2019-06-26T06:58:56.126Z,1012.63
2019-06-26T06:59:56.072Z,1012.64
2019-06-26T07:00:56.127Z,1012.68
2019-06-26T07:01:56.062Z,1012.75
2019-06-26T07:02:56.061Z,1012.69
2019-06-26T07:03:56.054Z,1012.69
2019-06-26T07:04:56.024Z,1012.76
2019-06-26T07:05:56.030Z,1012.68
2019-06-26T07:06:58.707Z,1012.73
2019-06-26T07:07:55.988Z,1012.76
2019-06-26T07:08:55.999Z,1012.72
2019-06-26T07:09:55.973Z,1012.77
2019-06-26T07:10:55.970Z,1012.81
2019-06-26T07:11:55.990Z,1012.77
2019-06-26T07:12:56.023Z,1012.74
2019-06-26T07:13:56.031Z,1012.79
2019-06-26T07:14:55.921Z,1012.75
2019-06-26T07:15:55.946Z,1012.74
2019-06-26T07:16:55.904Z,1012.78
2019-06-26T07:17:55.901Z,1012.90
2019-06-26T07:18:55.915Z,1012.78
2019-06-26T07:19:55.871Z,1012.91
2019-06-26T07:20:55.855Z,1012.84
2019-06-26T07:21:55.866Z,1012.88
2019-06-26T07:22:55.851Z,1012.92
2019-06-26T07:23:55.867Z,1012.91
2019-06-26T07:24:55.917Z,1012.82
2019-06-26T07:25:55.835Z,1012.91
2019-06-26T07:26:55.803Z,1012.98
2019-06-26T07:27:55.824Z,1012.92
2019-06-26T07:28:55.809Z,1012.92
2019-06-26T07:29:55.771Z,1012.92
2019-06-26T07:30:55.778Z,1012.85
2019-06-26T07:31:55.742Z,1012.83
2019-06-26T07:32:55.748Z,1012.85
2019-06-26T07:33:56.070Z,1012.90
2019-06-26T07:34:55.736Z,1012.88
2019-06-26T07:35:55.744Z,1012.91
2019-06-26T07:36:55.725Z,1012.91
2019-06-26T07:37:55.694Z,1012.98
2019-06-26T07:38:55.734Z,1013.00
2019-06-26T07:40:00.243Z,1013.04
2019-06-26T07:40:56.675Z,1012.96
2019-06-26T07:41:55.643Z,1013.03
2019-06-26T07:42:55.635Z,1013.10
2019-06-26T07:43:55.655Z,1013.13
2019-06-26T07:44:55.629Z,1013.04
2019-06-26T07:45:55.593Z,1013.08
2019-06-26T07:46:55.587Z,1013.06
2019-06-26T07:47:55.597Z,1013.13
2019-06-26T07:48:57.631Z,1013.07
2019-06-26T07:49:55.566Z,1013.14
2019-06-26T07:50:55.551Z,1013.18
2019-06-26T07:51:55.548Z,1013.17
2019-06-26T07:52:55.567Z,1013.23
2019-06-26T07:53:55.568Z,1013.19
2019-06-26T07:54:55.572Z,1013.20
2019-06-26T07:55:55.560Z,1013.23
2019-06-26T07:56:55.620Z,1013.22
2019-06-26T07:57:55.525Z,1013.21
2019-06-26T07:58:55.531Z,1013.28
2019-06-26T07:59:55.461Z,1013.31
2019-06-26T08:00:55.458Z,1013.20
2019-06-26T08:01:55.431Z,1013.25
2019-06-26T08:02:55.485Z,1013.30
2019-06-26T08:03:56.085Z,1013.29
2019-06-26T08:04:55.412Z,1013.24
2019-06-26T08:05:55.397Z,1013.28
2019-06-26T08:06:55.405Z,1013.26
2019-06-26T08:07:55.380Z,1013.30
2019-06-26T08:08:55.384Z,1013.32
2019-06-26T08:09:55.354Z,1013.35
2019-06-26T08:10:55.367Z,1013.45
2019-06-26T08:11:55.398Z,1013.42
2019-06-26T08:12:55.324Z,1013.41
2019-06-26T08:13:55.503Z,1013.42
2019-06-26T08:14:55.311Z,1013.44
2019-06-26T08:15:55.367Z,1013.45
2019-06-26T08:16:56.321Z,1013.54
2019-06-26T08:18:00.352Z,1013.48
2019-06-26T08:18:56.282Z,1013.44
2019-06-26T08:19:55.247Z,1013.50
2019-06-26T08:21:10.908Z,1013.54
2019-06-26T08:21:56.230Z,1013.56
2019-06-26T08:22:55.218Z,1013.55
2019-06-26T08:23:56.119Z,1013.56
2019-06-26T08:24:55.211Z,1013.60
2019-06-26T08:25:55.188Z,1013.56
2019-06-26T08:26:55.208Z,1013.64
2019-06-26T08:27:55.172Z,1013.60
2019-06-26T08:28:55.205Z,1013.69
2019-06-26T08:29:55.177Z,1013.75
2019-06-26T08:30:55.166Z,1013.71
2019-06-26T08:31:55.129Z,1013.66
2019-06-26T08:32:55.128Z,1013.67
2019-06-26T08:33:55.161Z,1013.52
2019-06-26T08:34:55.135Z,1013.75
2019-06-26T08:35:55.086Z,1013.75
2019-06-26T08:36:55.076Z,1013.72
2019-06-26T08:38:09.064Z,1013.80
2019-06-26T08:38:56.082Z,1013.78
2019-06-26T08:39:55.050Z,1013.73
2019-06-26T08:40:55.041Z,1013.74
2019-06-26T08:41:55.112Z,1013.72
2019-06-26T08:42:55.057Z,1013.76
2019-06-26T08:43:55.045Z,1013.74
2019-06-26T08:44:55.041Z,1013.80
2019-06-26T08:45:54.999Z,1013.82
2019-06-26T08:46:55.026Z,1013.84
2019-06-26T08:47:54.969Z,1013.75
2019-06-26T08:48:55.318Z,1013.83
2019-06-26T08:49:55.193Z,1013.86
2019-06-26T08:50:54.943Z,1013.88
2019-06-26T08:51:55.059Z,1013.92
2019-06-26T08:52:54.985Z,1013.93
2019-06-26T08:53:56.584Z,1013.87
2019-06-26T08:54:54.916Z,1013.94
2019-06-26T08:55:54.952Z,1013.97
2019-06-26T08:56:55.004Z,1014.03
2019-06-26T08:57:54.950Z,1013.88
2019-06-26T08:58:55.604Z,1013.94
2019-06-26T08:59:54.953Z,1013.89
2019-06-26T09:00:54.999Z,1014.05
2019-06-26T09:01:54.943Z,1013.92
2019-06-26T09:02:54.926Z,1014.00
2019-06-26T09:03:55.028Z,1014.02
2019-06-26T09:04:55.877Z,1014.06
2019-06-26T09:05:55.090Z,1014.04
2019-06-26T09:06:54.808Z,1013.97
2019-06-26T09:07:54.782Z,1014.00
2019-06-26T09:08:54.750Z,1014.00
2019-06-26T09:09:55.581Z,1013.99
2019-06-26T09:10:54.740Z,1013.98
2019-06-26T09:11:54.756Z,1014.04
2019-06-26T09:12:54.717Z,1013.98
2019-06-26T09:13:54.726Z,1014.07
2019-06-26T09:14:55.619Z,1014.01
2019-06-26T09:15:54.712Z,1013.99
2019-06-26T09:16:54.672Z,1014.08
2019-06-26T09:17:54.702Z,1014.02
2019-06-26T09:18:54.655Z,1014.04
2019-06-26T09:19:54.680Z,1014.13
2019-06-26T09:20:54.632Z,1014.03
2019-06-26T09:21:54.643Z,1014.15
2019-06-26T09:22:54.611Z,1014.08
2019-06-26T09:23:54.609Z,1014.03
2019-06-26T09:24:54.625Z,1014.02
2019-06-26T09:25:54.621Z,1014.08
2019-06-26T09:26:54.609Z,1014.08
2019-06-26T09:27:54.587Z,1014.04
2019-06-26T09:28:54.611Z,1014.11
2019-06-26T09:29:54.599Z,1014.12
2019-06-26T09:30:54.550Z,1014.18
2019-06-26T09:31:54.522Z,1014.07
2019-06-26T09:32:54.537Z,1014.12
2019-06-26T09:33:54.516Z,1014.09
2019-06-26T09:34:54.526Z,1014.09
2019-06-26T09:35:54.484Z,1014.20
2019-06-26T09:36:54.474Z,1014.19
2019-06-26T09:37:54.469Z,1014.09
2019-06-26T09:38:57.757Z,1014.19
2019-06-26T09:39:54.478Z,1014.29
2019-06-26T09:40:54.481Z,1014.20
2019-06-26T09:41:54.465Z,1014.18
2019-06-26T09:42:54.426Z,1014.23
2019-06-26T09:43:54.412Z,1014.20
2019-06-26T09:44:54.505Z,1014.12
2019-06-26T09:45:54.397Z,1014.22
2019-06-26T09:46:54.386Z,1014.20
2019-06-26T09:47:54.380Z,1014.19
2019-06-26T09:48:54.369Z,1014.14
2019-06-26T09:49:54.371Z,1014.22
2019-06-26T09:50:54.367Z,1014.16
2019-06-26T09:51:54.367Z,1014.21
2019-06-26T09:52:54.320Z,1014.26
2019-06-26T09:53:54.323Z,1014.26
2019-06-26T09:54:54.340Z,1014.32
2019-06-26T09:55:54.326Z,1014.27
2019-06-26T09:56:54.293Z,1014.27
2019-06-26T09:57:54.330Z,1014.32
2019-06-26T09:58:54.293Z,1014.26
2019-06-26T09:59:54.297Z,1014.26
2019-06-26T10:00:54.265Z,1014.32
2019-06-26T10:01:54.235Z,1014.25
2019-06-26T10:02:54.228Z,1014.21
2019-06-26T10:03:54.250Z,1014.13
2019-06-26T10:04:54.248Z,1014.30
2019-06-26T10:05:54.206Z,1014.26
2019-06-26T10:06:54.246Z,1014.30
2019-06-26T10:07:54.179Z,1014.25
2019-06-26T10:08:54.747Z,1014.23
2019-06-26T10:09:54.192Z,1014.22
2019-06-26T10:10:54.213Z,1014.19
2019-06-26T10:11:54.171Z,1014.22
2019-06-26T10:12:54.136Z,1014.10
2019-06-26T10:13:54.140Z,1014.15
2019-06-26T10:14:54.211Z,1014.13
2019-06-26T10:15:54.112Z,1014.26
2019-06-26T10:16:54.091Z,1014.21
2019-06-26T10:17:54.110Z,1014.21
2019-06-26T10:19:08.863Z,1014.33
2019-06-26T10:19:55.102Z,1014.27
2019-06-26T10:20:54.055Z,1014.24
2019-06-26T10:21:54.094Z,1014.30
2019-06-26T10:22:54.041Z,1014.17
2019-06-26T10:23:54.036Z,1014.32
2019-06-26T10:24:54.036Z,1014.24
2019-06-26T10:25:54.114Z,1014.23
2019-06-26T10:26:54.042Z,1014.31
2019-06-26T10:27:54.038Z,1014.32
2019-06-26T10:28:53.982Z,1014.31
2019-06-26T10:29:54.004Z,1014.31
2019-06-26T10:30:53.959Z,1014.36
2019-06-26T10:31:53.969Z,1014.36
2019-06-26T10:32:54.006Z,1014.38
2019-06-26T10:33:53.987Z,1014.37
2019-06-26T10:34:53.965Z,1014.46
2019-06-26T10:35:53.950Z,1014.47
2019-06-26T10:36:53.942Z,1014.47
2019-06-26T10:37:53.912Z,1014.47
2019-06-26T10:38:53.962Z,1014.44
2019-06-26T10:39:55.613Z,1014.40
2019-06-26T10:40:53.867Z,1014.46
2019-06-26T10:41:55.206Z,1014.45
2019-06-26T10:42:53.917Z,1014.50
2019-06-26T10:43:53.849Z,1014.41
2019-06-26T10:44:53.868Z,1014.51
2019-06-26T10:45:53.824Z,1014.48
2019-06-26T10:46:53.854Z,1014.43
2019-06-26T10:47:53.821Z,1014.65
2019-06-26T10:48:53.961Z,1014.57
2019-06-26T10:49:54.614Z,1014.47
2019-06-26T10:50:58.511Z,1014.51
2019-06-26T10:51:54.813Z,1014.51
2019-06-26T10:52:53.757Z,1014.51
2019-06-26T10:53:53.803Z,1014.52
2019-06-26T10:54:53.793Z,1014.56
2019-06-26T10:55:53.735Z,1014.56
2019-06-26T10:56:53.737Z,1014.57
2019-06-26T10:57:53.714Z,1014.48
2019-06-26T10:58:53.732Z,1014.54
2019-06-26T10:59:55.895Z,1014.51
2019-06-26T11:00:53.716Z,1014.44
2019-06-26T11:01:53.691Z,1014.51
2019-06-26T11:02:53.785Z,1014.50
2019-06-26T11:03:53.665Z,1014.48
2019-06-26T11:04:53.675Z,1014.38
2019-06-26T11:05:53.638Z,1014.37
2019-06-26T11:06:53.649Z,1014.33
2019-06-26T11:07:53.622Z,1014.36
2019-06-26T11:08:53.659Z,1014.40
2019-06-26T11:09:53.864Z,1014.35
2019-06-26T11:10:53.597Z,1014.40
2019-06-26T11:11:53.593Z,1014.40
2019-06-26T11:12:53.584Z,1014.43
2019-06-26T11:13:53.611Z,1014.35
2019-06-26T11:14:53.633Z,1014.47
2019-06-26T11:15:53.555Z,1014.51
2019-06-26T11:16:53.546Z,1014.37
2019-06-26T11:17:53.623Z,1014.29
2019-06-26T11:18:53.684Z,1014.36
2019-06-26T11:19:55.567Z,1014.35
2019-06-26T11:20:53.534Z,1014.39
2019-06-26T11:21:53.503Z,1014.36
2019-06-26T11:22:53.519Z,1014.35
2019-06-26T11:23:53.511Z,1014.32
2019-06-26T11:24:53.548Z,1014.32
2019-06-26T11:25:53.475Z,1014.35
2019-06-26T11:26:53.463Z,1014.34
2019-06-26T11:27:53.451Z,1014.46
2019-06-26T11:28:53.464Z,1014.43
2019-06-26T11:29:53.459Z,1014.37
2019-06-26T11:30:53.426Z,1014.34
2019-06-26T11:31:53.427Z,1014.37
2019-06-26T11:32:53.427Z,1014.32
2019-06-26T11:33:53.449Z,1014.41
2019-06-26T11:34:53.421Z,1014.31
2019-06-26T11:35:53.386Z,1014.27
2019-06-26T11:37:03.239Z,1014.22
2019-06-26T11:37:54.384Z,1014.18
2019-06-26T11:38:53.373Z,1014.27
2019-06-26T11:39:54.117Z,1014.16
2019-06-26T11:40:53.347Z,1014.15
2019-06-26T11:41:53.327Z,1014.24
2019-06-26T11:42:53.321Z,1014.23
2019-06-26T11:43:53.351Z,1014.23
2019-06-26T11:44:53.399Z,1014.22
2019-06-26T11:45:53.293Z,1014.34
2019-06-26T11:46:53.317Z,1014.35
2019-06-26T11:47:53.278Z,1014.33
2019-06-26T11:48:53.269Z,1014.27
2019-06-26T11:49:59.933Z,1014.30
2019-06-26T11:50:54.274Z,1014.24
2019-06-26T11:51:53.238Z,1014.28
2019-06-26T11:52:53.229Z,1014.29
2019-06-26T11:53:53.238Z,1014.35
2019-06-26T11:55:02.704Z,1014.08
2019-06-26T11:55:54.232Z,1014.30
2019-06-26T11:56:53.226Z,1014.37
2019-06-26T11:57:53.234Z,1014.36
2019-06-26T11:58:53.181Z,1014.29
2019-06-26T11:59:53.273Z,1014.35
2019-06-26T12:00:53.182Z,1014.18
2019-06-26T12:01:53.344Z,1014.21
2019-06-26T12:02:53.172Z,1014.15
2019-06-26T12:03:53.145Z,1013.98
2019-06-26T12:04:54.125Z,1014.02